INFORMACIÓN METAR y TAF
METAR FOR LIPR
ADDS - METARS form results

(1628 UTC 30 October 2020)
Data provider http://aviationweather.gov/metar/data/
 
METAR text: LIPR 301620Z VRB02KT CAVOK 15/12 Q1023
Conditions at: LIPR (RIMINI (CIV/IT-A, IT) observed 1620 UTC 30 October 2020
Temperature: 15.0°C (59°F)
Dewpoint: 12.0°C (54°F) [RH = 82%]
Pressure (altimeter): 30.21 inches Hg (1023.0 mb)
Winds: variable direction winds at 2 MPH (2 knots; 1.0 m/s)
Visibility: 6 or more miles (10+ km)
Ceiling: ceiling and visibility are OK
Clouds: unknown
Weather: no significant weather observed at this time

METAR text: LIPR 301550Z 11003KT CAVOK 16/12 Q1023
Conditions at: LIPR (RIMINI (CIV/IT-A, IT) observed 1550 UTC 30 October 2020
Temperature: 16.0°C (61°F)
Dewpoint: 12.0°C (54°F) [RH = 77%]
Pressure (altimeter): 30.21 inches Hg (1023.0 mb)
Winds: from the ESE (110 degrees) at 3 MPH (3 knots; 1.5 m/s)
Visibility: 6 or more miles (10+ km)
Ceiling: ceiling and visibility are OK
Clouds: unknown
Weather: no significant weather observed at this time

Forecast for: LIPR (RIMINI (CIV/IT-A, IT)
Text: TAF LIPR 301400Z 3015/3024 VRB05KT 9999 FEW050
Forecast period: 1500 to 1800 UTC 30 October 2020
Forecast type: FROM: standard forecast or significant change
Winds: variable direction winds at 6 MPH (5 knots; 2.6 m/s)
Visibility: 6 or more miles (10+ km)
Ceiling: at least 12,000 feet AGL
Clouds: few clouds at 5000 feet AGL
Weather: no significant weather forecast for this period
Text: BECMG 3018/3020 3000 BR
Forecast period: 1800 UTC 30 October 2020 to 0000 UTC 31 October 2020
Forecast type: BECOMING: Conditions expected to become as follows by 2000 UTC 30 October 2020
Winds: variable direction winds at 6 MPH (5 knots; 2.6 m/s)
Visibility: 1.86 miles (2.99 km)
Ceiling: at least 12,000 feet AGL
Clouds: few clouds at 5000 feet AGL
Weather: BR  (mist)

 MAPA DE AEROPUERTO

 INFORMACIÓN DE PISTA
Pista 13 Longitud 9828 ft Ancho 148 ft
Elevación 21 ft Umbral desplazado 1030 ft Rumbo de pista 128
Pista 31 Longitud 9828 ft Ancho 148 ft
Elevación 39 ft Umbral desplazado 1006 ft Rumbo de pista 308

 FRECUANCIAS DEL AEROPUERTO
Tipo APP Nombre ROMAGNA AP Frecuencia 36.23 MHZ
Tipo APP Nombre ROMAGNA AP Frecuencia 118.15 MHZ
Tipo GCCD Nombre GND/CLNC D Frecuencia 121.6 MHZ
Tipo TWR Nombre TWR Frecuencia 119.1 MHZ

 RADIO AYUDAS DEL AEROPUERTO
Tipo VORTAC Nombre Rimini Frecuencia 116200 KHZ
Tipo NDB Nombre Rimini Frecuencia 335 KHZ



Powered by Virtual Airlines Manager [v2.6.2]